createdAt,value
2019-06-01T00:01:11.795Z,7.15
2019-06-01T00:03:42.221Z,3.90
2019-06-01T00:06:11.864Z,7.55
2019-06-01T00:08:41.512Z,3.50
2019-06-01T00:11:11.260Z,5.25
2019-06-01T00:13:41.535Z,4.53
2019-06-01T00:16:11.215Z,7.00
2019-06-01T00:18:41.794Z,4.37
2019-06-01T00:21:11.607Z,5.45
2019-06-01T00:23:42.429Z,4.33
2019-06-01T00:26:12.278Z,8.25
2019-06-01T00:28:42.036Z,8.43
2019-06-01T00:31:11.677Z,5.12
2019-06-01T00:33:41.287Z,8.20
2019-06-01T00:36:10.934Z,4.35
2019-06-01T00:38:41.617Z,5.15
2019-06-01T00:41:11.311Z,4.90
2019-06-01T00:43:42.031Z,6.97
2019-06-01T00:46:11.856Z,4.40
2019-06-01T00:48:41.425Z,5.22
2019-06-01T00:51:11.145Z,11.18
2019-06-01T00:53:40.928Z,5.92
2019-06-01T00:56:11.416Z,6.12
2019-06-01T00:58:41.104Z,10.38
2019-06-01T01:01:11.146Z,14.03
2019-06-01T01:03:40.965Z,12.03
2019-06-01T01:06:10.607Z,8.98
2019-06-01T01:08:40.172Z,9.08
2019-06-01T01:11:09.966Z,14.15
2019-06-01T01:13:39.673Z,14.68
2019-06-01T01:16:09.498Z,17.23
2019-06-01T01:18:39.262Z,26.90
2019-06-01T01:26:06.589Z,18.52
2019-06-01T01:28:36.154Z,22.15
2019-06-01T05:27:28.126Z,19.32
2019-06-01T05:29:57.627Z,19.65
2019-06-01T05:32:27.260Z,24.98
2019-06-01T05:34:56.763Z,18.90
2019-06-01T05:37:26.652Z,20.70
2019-06-01T05:39:56.170Z,19.32
2019-06-01T05:42:25.674Z,24.95
2019-06-01T05:44:55.197Z,18.40
2019-06-01T05:47:26.217Z,18.73
2019-06-01T05:49:55.872Z,17.77
2019-06-01T05:52:25.377Z,20.88
2019-06-01T05:54:54.887Z,16.55
2019-06-01T05:57:24.401Z,21.48
2019-06-01T05:59:53.914Z,18.90
2019-06-01T06:02:23.501Z,25.45
2019-06-01T06:04:54.130Z,21.45
2019-06-01T06:07:23.894Z,25.62
2019-06-01T06:09:53.492Z,25.62
2019-06-01T06:12:22.994Z,25.60
2019-06-01T06:14:52.533Z,24.80
2019-06-01T06:17:24.316Z,37.65
2019-06-01T06:19:53.495Z,40.20
2019-06-01T06:22:22.999Z,53.15
2019-06-01T06:24:52.659Z,49.48
2019-06-01T06:27:22.997Z,76.77
2019-06-01T06:29:52.502Z,70.30
2019-06-01T06:32:23.326Z,67.40
2019-06-01T06:34:53.084Z,66.10
2019-06-01T06:37:23.803Z,67.80
2019-06-01T06:39:53.384Z,66.75
2019-06-01T06:42:22.987Z,67.62
2019-06-01T06:44:52.487Z,52.95
2019-06-01T06:47:41.954Z,29.15
2019-06-01T06:50:17.248Z,31.15
2019-06-01T06:52:47.408Z,28.62
2019-06-01T06:55:17.811Z,23.87
2019-06-01T06:57:47.490Z,38.88
2019-06-01T07:00:18.425Z,67.55
2019-06-01T07:02:48.095Z,36.53
2019-06-01T07:05:17.584Z,22.65
2019-06-01T07:07:47.116Z,20.92
2019-06-01T07:10:17.892Z,15.72
2019-06-01T07:12:47.584Z,22.62
2019-06-01T07:15:17.281Z,19.05
2019-06-01T07:17:46.786Z,17.40
2019-06-01T07:20:16.664Z,34.03
2019-06-01T07:22:46.182Z,30.55
2019-06-01T07:25:15.856Z,38.80
2019-06-01T07:27:45.508Z,16.45
2019-06-01T07:30:15.099Z,25.57
2019-06-01T07:32:44.713Z,20.57
2019-06-01T07:35:14.517Z,11.55
2019-06-01T07:37:44.030Z,6.95
2019-06-01T07:40:14.206Z,11.73
2019-06-01T07:42:44.191Z,19.35
2019-06-01T07:45:13.932Z,18.95
2019-06-01T07:47:43.667Z,7.60
2019-06-01T07:52:42.334Z,10.18
2019-06-01T07:55:11.914Z,4.08
2019-06-01T08:00:13.394Z,20.57
2019-06-01T08:02:43.739Z,14.40
2019-06-01T08:05:13.851Z,9.10
2019-06-01T08:07:44.016Z,6.35
2019-06-01T08:12:43.522Z,8.83
2019-06-01T08:15:14.153Z,8.90
2019-06-01T08:22:43.633Z,7.15
2019-06-01T08:25:13.927Z,10.03
2019-06-01T08:27:44.208Z,6.80
2019-06-01T08:30:14.596Z,4.42
2019-06-01T08:32:44.662Z,17.05
2019-06-01T08:40:20.089Z,33.75
2019-06-01T08:42:50.324Z,17.17
2019-06-01T08:45:20.737Z,6.40
2019-06-01T08:47:50.984Z,13.22
2019-06-01T08:50:21.119Z,15.28
2019-06-01T08:52:51.430Z,7.60
2019-06-01T08:55:21.904Z,5.45
2019-06-01T08:57:52.067Z,13.10
2019-06-01T09:00:22.363Z,4.58
2019-06-01T09:02:52.578Z,12.78
2019-06-01T09:05:24.952Z,25.97
2019-06-01T09:10:25.242Z,24.52
2019-06-01T09:12:55.567Z,16.62
2019-06-01T09:15:27.439Z,15.83
2019-06-01T09:20:27.416Z,9.90
2019-06-01T09:25:27.521Z,11.78
2019-06-01T09:27:58.169Z,11.25
2019-06-01T09:30:28.344Z,21.35
2019-06-01T09:32:58.535Z,18.20
2019-06-01T09:35:51.376Z,18.92
2019-06-01T09:40:31.606Z,18.65
2019-06-01T09:45:32.820Z,13.30
2019-06-01T09:48:03.332Z,10.75
2019-06-01T09:50:33.851Z,13.32
2019-06-01T09:53:04.123Z,9.38
2019-06-01T09:55:34.608Z,4.83
2019-06-01T09:58:05.149Z,5.80
2019-06-01T10:00:40.001Z,6.08
2019-06-01T10:05:37.024Z,5.60
2019-06-01T10:08:07.360Z,7.25
2019-06-01T10:10:38.125Z,5.90
2019-06-01T10:13:08.782Z,7.60
2019-06-01T10:15:39.735Z,3.02
2019-06-01T10:18:09.952Z,4.85
2019-06-01T10:20:41.359Z,4.10
2019-06-01T10:23:11.892Z,3.67
2019-06-01T10:25:42.687Z,2.77
2019-06-01T10:28:12.862Z,6.47
2019-06-01T10:30:43.171Z,3.22
2019-06-01T10:33:13.500Z,5.15
2019-06-01T10:35:44.080Z,4.90
2019-06-01T10:38:14.386Z,3.25
2019-06-01T10:40:44.695Z,2.95
2019-06-01T10:43:15.124Z,3.10
2019-06-01T10:45:45.356Z,3.55
2019-06-01T10:48:15.355Z,5.62
2019-06-01T10:50:45.479Z,3.55
2019-06-01T10:53:16.014Z,3.00
2019-06-01T10:55:46.960Z,2.10
2019-06-01T10:58:17.407Z,4.17
2019-06-01T11:00:51.044Z,8.93
2019-06-01T11:03:20.090Z,3.27
2019-06-01T11:05:50.231Z,3.58
2019-06-01T11:08:20.407Z,1.98
2019-06-01T11:10:50.744Z,3.10
2019-06-01T11:13:21.036Z,3.70
2019-06-01T11:15:51.182Z,6.72
2019-06-01T11:18:21.440Z,1.85
2019-06-01T11:20:51.543Z,1.82
2019-06-01T11:23:21.899Z,3.35
2019-06-01T11:25:52.121Z,3.00
2019-06-01T11:28:22.537Z,3.52
2019-06-01T11:30:53.036Z,6.35
2019-06-01T11:33:23.317Z,3.85
2019-06-01T11:35:53.659Z,4.00
2019-06-01T11:38:24.086Z,7.22
2019-06-01T11:40:54.392Z,3.20
2019-06-01T11:43:24.604Z,2.55
2019-06-01T11:45:54.752Z,3.17
2019-06-01T11:48:24.923Z,2.95
2019-06-01T11:50:55.132Z,3.35
2019-06-01T11:53:25.316Z,2.25
2019-06-01T11:55:56.008Z,3.47
2019-06-01T11:58:26.205Z,3.02
2019-06-01T12:00:56.645Z,2.70
2019-06-01T12:03:26.709Z,2.62
2019-06-01T12:05:57.080Z,4.60
2019-06-01T12:08:27.434Z,2.17
2019-06-01T12:10:57.755Z,2.15
2019-06-01T12:13:28.052Z,2.35
2019-06-01T12:15:58.251Z,4.50
2019-06-01T12:18:28.935Z,1.45
2019-06-01T12:20:59.028Z,2.52
2019-06-01T12:23:29.256Z,1.25
2019-06-01T12:25:59.566Z,1.75
2019-06-01T12:28:29.863Z,2.42
2019-06-01T12:31:00.223Z,2.40
2019-06-01T12:33:30.324Z,2.92
2019-06-01T12:36:00.483Z,2.37
2019-06-01T12:38:32.428Z,4.25
2019-06-01T12:41:02.618Z,2.85
2019-06-01T12:43:33.070Z,1.70
2019-06-01T12:46:07.717Z,4.33
2019-06-01T12:48:35.194Z,2.75
2019-06-01T12:51:05.624Z,4.25
2019-06-01T12:53:35.863Z,2.52
2019-06-01T12:56:06.515Z,4.08
2019-06-01T12:58:37.069Z,3.42
2019-06-01T13:01:07.500Z,2.85
2019-06-01T13:03:37.630Z,1.98
2019-06-01T13:06:08.040Z,1.40
2019-06-01T13:08:38.588Z,1.27
2019-06-01T13:11:08.791Z,1.52
2019-06-01T13:13:39.169Z,1.67
2019-06-01T13:16:09.399Z,2.75
2019-06-01T13:18:39.680Z,1.67
2019-06-01T13:21:09.757Z,4.22
2019-06-01T13:23:39.891Z,1.47
2019-06-01T13:26:09.938Z,2.60
2019-06-01T13:28:41.636Z,2.37
2019-06-01T13:33:42.258Z,3.02
2019-06-01T13:36:13.491Z,6.58
2019-06-01T13:38:44.504Z,2.40
2019-06-01T13:41:15.011Z,2.02
2019-06-01T13:43:45.301Z,2.37
2019-06-01T13:46:15.740Z,2.20
2019-06-01T13:48:45.865Z,2.70
2019-06-01T13:51:16.080Z,1.45
2019-06-01T13:53:46.504Z,4.50
2019-06-01T13:56:16.699Z,3.20
2019-06-01T13:58:46.891Z,4.75
2019-06-01T14:01:17.174Z,2.17
2019-06-01T14:03:47.466Z,2.12
2019-06-01T14:06:17.556Z,3.05
2019-06-01T14:08:47.603Z,3.62
2019-06-01T14:11:17.973Z,1.98
2019-06-01T14:13:48.069Z,4.00
2019-06-01T14:16:18.257Z,4.15
2019-06-01T14:18:49.637Z,2.02
2019-06-01T14:21:20.098Z,1.60
2019-06-01T14:23:50.310Z,2.12
2019-06-01T14:26:20.670Z,1.40
2019-06-01T14:28:51.905Z,2.47
2019-06-01T14:31:22.263Z,1.45
2019-06-01T14:33:52.643Z,3.15
2019-06-01T14:36:22.852Z,3.92
2019-06-01T14:38:54.718Z,6.58
2019-06-01T14:41:24.861Z,1.50
2019-06-01T14:43:56.343Z,2.35
2019-06-01T14:46:27.410Z,2.90
2019-06-01T14:48:58.020Z,4.28
2019-06-01T14:51:28.987Z,4.47
2019-06-01T14:53:59.708Z,2.85
2019-06-01T14:56:30.665Z,3.17
2019-06-01T14:59:02.187Z,1.40
2019-06-01T15:01:33.369Z,1.40
2019-06-01T15:04:04.280Z,1.90
2019-06-01T15:06:35.423Z,3.02
2019-06-01T15:09:18.555Z,1.90
2019-06-01T15:11:41.717Z,4.55
2019-06-01T15:14:12.784Z,2.85
2019-06-01T15:16:43.828Z,2.02
2019-06-01T15:19:14.817Z,3.05
2019-06-01T15:21:45.756Z,5.45
2019-06-01T15:24:17.439Z,1.52
2019-06-01T15:26:48.512Z,2.30
2019-06-01T15:29:19.595Z,1.72
2019-06-01T15:31:51.154Z,4.80
2019-06-01T15:34:22.360Z,2.05
2019-06-01T15:36:53.679Z,5.17
2019-06-01T15:41:55.604Z,4.65
2019-06-01T15:44:26.443Z,2.50
2019-06-01T15:46:57.726Z,2.55
2019-06-01T15:49:28.631Z,4.50
2019-06-01T15:51:59.876Z,2.87
2019-06-01T15:57:00.794Z,3.05
2019-06-01T15:59:31.988Z,8.70
2019-06-01T16:02:03.485Z,6.55
2019-06-01T16:04:34.384Z,10.68
2019-06-01T16:07:05.105Z,5.85
2019-06-01T16:09:42.562Z,3.50
2019-06-01T16:12:08.103Z,3.40
2019-06-01T16:14:39.065Z,2.00
2019-06-01T16:17:09.696Z,6.25
2019-06-01T16:19:40.419Z,1.65
2019-06-01T16:22:11.119Z,1.95
2019-06-01T16:24:41.592Z,2.42
2019-06-01T16:27:12.239Z,4.73
2019-06-01T16:29:42.966Z,2.90
2019-06-01T16:32:13.398Z,4.53
2019-06-01T16:34:44.119Z,1.85
2019-06-01T16:37:14.767Z,6.53
2019-06-01T16:39:58.797Z,2.67
2019-06-01T16:42:18.258Z,2.30
2019-06-01T16:44:48.848Z,3.60
2019-06-01T16:47:19.573Z,2.42
2019-06-01T16:49:50.187Z,2.25
2019-06-01T16:52:20.974Z,4.30
2019-06-01T16:54:51.495Z,2.08
2019-06-01T16:57:22.342Z,3.45
2019-06-01T16:59:54.099Z,2.77
2019-06-01T17:02:24.858Z,4.62
2019-06-01T17:04:56.530Z,2.87
2019-06-01T17:07:27.511Z,2.95
2019-06-01T17:10:00.026Z,2.33
2019-06-01T17:12:30.624Z,4.05
2019-06-01T17:15:01.492Z,2.60
2019-06-01T17:17:32.149Z,8.80
2019-06-01T17:20:03.331Z,2.87
2019-06-01T17:22:34.375Z,1.50
2019-06-01T17:25:07.931Z,2.03
2019-06-01T17:27:39.141Z,3.37
2019-06-01T17:35:11.883Z,3.17
2019-06-01T17:40:13.018Z,5.78
2019-06-01T17:45:14.046Z,5.80
2019-06-01T17:47:44.647Z,5.62
2019-06-01T17:50:18.248Z,5.83
2019-06-01T17:52:48.631Z,3.25
2019-06-01T17:55:38.774Z,2.45
2019-06-01T17:58:10.343Z,4.05
2019-06-01T18:00:43.005Z,6.20
2019-06-01T18:05:43.833Z,3.40
2019-06-01T18:08:14.756Z,4.92
2019-06-01T18:10:54.011Z,5.00
2019-06-01T18:13:18.525Z,3.92
2019-06-01T18:15:50.100Z,4.87
2019-06-01T18:18:21.391Z,4.85
2019-06-01T18:20:52.033Z,3.12
2019-06-01T18:23:22.957Z,2.47
2019-06-01T18:25:53.854Z,3.58
2019-06-01T18:28:24.540Z,3.83
2019-06-01T18:30:55.362Z,3.40
2019-06-01T18:33:26.198Z,2.80
2019-06-01T18:35:56.946Z,5.70
2019-06-01T18:38:27.643Z,6.08
2019-06-01T18:41:09.594Z,3.80
2019-06-01T18:43:30.528Z,3.35
2019-06-01T18:46:01.130Z,3.83
2019-06-01T18:48:31.970Z,2.80
2019-06-01T18:51:03.925Z,5.80
2019-06-01T18:53:34.783Z,4.00
2019-06-01T18:56:06.029Z,2.08
2019-06-01T18:58:36.580Z,4.65
2019-06-01T19:01:08.325Z,6.17
2019-06-01T19:06:09.564Z,3.58
2019-06-01T19:08:40.383Z,5.03
2019-06-01T19:11:27.370Z,3.20
2019-06-01T19:13:43.509Z,6.35
2019-06-01T19:16:14.361Z,6.03
2019-06-01T19:18:45.191Z,3.83
2019-06-01T19:21:16.935Z,4.17
2019-06-01T19:23:47.771Z,8.93
2019-06-01T19:26:18.727Z,4.50
2019-06-01T19:28:49.523Z,6.35
2019-06-01T19:31:20.480Z,5.55
2019-06-01T19:33:51.140Z,3.75
2019-06-01T19:36:22.570Z,5.20
2019-06-01T19:38:54.684Z,3.27
2019-06-01T19:41:25.550Z,4.62
2019-06-01T19:43:56.422Z,3.70
2019-06-01T19:46:27.390Z,6.17
2019-06-01T19:48:58.170Z,4.28
2019-06-01T19:51:28.952Z,6.92
2019-06-01T19:53:59.864Z,4.53
2019-06-01T19:56:30.336Z,6.22
2019-06-01T19:59:01.075Z,4.55
2019-06-01T20:01:31.898Z,4.03
2019-06-01T20:04:02.628Z,5.45
2019-06-01T20:06:33.111Z,5.58
2019-06-01T20:09:03.827Z,6.78
2019-06-01T20:11:34.545Z,5.87
2019-06-01T20:14:04.915Z,5.85
2019-06-01T20:16:35.532Z,5.83
2019-06-01T20:19:06.245Z,5.35
2019-06-01T20:21:36.839Z,5.47
2019-06-01T20:24:07.203Z,5.58
2019-06-01T20:26:44.510Z,7.28
2019-06-01T20:31:38.696Z,8.60
2019-06-01T20:34:09.045Z,10.95
2019-06-01T20:36:39.132Z,10.80
2019-06-01T20:39:10.017Z,9.20
2019-06-01T20:41:40.136Z,12.33
2019-06-01T20:44:10.375Z,14.13
2019-06-01T20:46:40.267Z,13.55
2019-06-01T20:49:10.368Z,15.88
2019-06-01T20:51:40.494Z,12.82
2019-06-01T20:54:10.505Z,13.10
2019-06-01T20:56:40.498Z,12.05
2019-06-01T20:59:10.580Z,16.32
2019-06-01T21:01:40.501Z,10.85
2019-06-01T21:04:10.525Z,7.97
2019-06-01T21:06:40.499Z,12.37
2019-06-01T21:09:11.216Z,10.03
2019-06-01T21:11:41.335Z,11.90
2019-06-01T21:14:11.577Z,10.58
2019-06-01T21:16:41.703Z,17.45
2019-06-01T21:19:11.980Z,13.53
2019-06-01T21:24:11.345Z,31.35
2019-06-01T21:26:41.826Z,38.28
2019-06-01T21:29:11.951Z,26.60
2019-06-01T21:31:42.550Z,40.17
2019-06-01T21:34:13.007Z,35.35
2019-06-01T21:36:43.155Z,24.90
2019-06-01T21:41:42.684Z,21.55
2019-06-01T21:44:12.914Z,26.20
2019-06-01T21:46:43.522Z,21.30
2019-06-01T21:49:13.757Z,20.20
2019-06-01T21:51:44.126Z,20.25
2019-06-01T21:56:43.776Z,22.13
2019-06-01T21:59:14.126Z,18.12
2019-06-01T22:01:44.492Z,21.48
2019-06-01T22:06:46.259Z,17.10
2019-06-01T22:11:45.794Z,13.98
2019-06-01T22:14:17.260Z,14.18
2019-06-01T22:16:47.833Z,15.08
2019-06-01T22:19:19.479Z,13.43
2019-06-01T22:21:49.997Z,15.13
2019-06-01T22:24:21.617Z,12.28
2019-06-01T22:26:52.284Z,10.70
2019-06-01T22:29:22.896Z,9.80
2019-06-01T22:31:53.370Z,10.55
2019-06-01T22:34:24.885Z,9.15
2019-06-01T22:36:55.414Z,6.62
2019-06-01T22:39:26.926Z,7.17
2019-06-01T22:41:57.451Z,7.67
2019-06-01T22:44:28.363Z,9.30
2019-06-01T22:46:58.778Z,8.70
2019-06-01T22:49:29.193Z,7.10
2019-06-01T22:51:59.385Z,6.08
2019-06-01T22:54:29.554Z,10.55
2019-06-01T22:56:59.743Z,6.42
2019-06-01T22:59:29.911Z,10.25
2019-06-01T23:02:00.230Z,7.37
2019-06-01T23:04:31.377Z,9.20
2019-06-01T23:07:01.725Z,7.47
2019-06-01T23:09:31.829Z,6.60
2019-06-01T23:12:01.834Z,7.12
2019-06-01T23:14:31.947Z,7.10
2019-06-01T23:17:01.951Z,6.75
2019-06-01T23:19:32.091Z,11.35
2019-06-01T23:22:02.190Z,6.55
2019-06-01T23:24:32.340Z,5.75
2019-06-01T23:27:02.310Z,5.40
2019-06-01T23:29:32.523Z,8.98
2019-06-01T23:32:02.674Z,8.15
2019-06-01T23:34:32.812Z,9.33
2019-06-01T23:37:03.061Z,5.50
2019-06-01T23:39:33.282Z,9.23
2019-06-01T23:42:03.285Z,6.72
2019-06-01T23:44:35.054Z,6.15
2019-06-01T23:47:05.461Z,7.15
2019-06-01T23:49:36.522Z,8.08
2019-06-01T23:52:06.407Z,6.37
2019-06-01T23:54:36.533Z,8.05
2019-06-01T23:57:06.922Z,9.35
2019-06-01T23:59:37.156Z,8.25
